createdAt,value
2018-05-16T00:00:19.941Z,8.60
2018-05-16T00:03:52.489Z,8.93
2018-05-16T00:07:24.978Z,8.30
2018-05-16T00:10:57.448Z,8.40
2018-05-16T00:14:30.216Z,8.90
2018-05-16T00:18:03.505Z,9.00
2018-05-16T00:21:35.990Z,8.50
2018-05-16T00:25:08.469Z,8.20
2018-05-16T00:28:40.958Z,8.17
2018-05-16T00:32:13.442Z,8.47
2018-05-16T00:35:45.915Z,9.00
2018-05-16T00:39:18.408Z,8.67
2018-05-16T00:42:51.673Z,8.90
2018-05-16T00:46:24.148Z,8.33
2018-05-16T00:49:56.637Z,10.20
2018-05-16T00:53:29.124Z,9.80
2018-05-16T00:57:01.619Z,9.60
2018-05-16T01:00:34.105Z,9.60
2018-05-16T01:04:06.591Z,9.47
2018-05-16T01:07:39.068Z,8.80
2018-05-16T01:11:11.549Z,9.70
2018-05-16T01:14:44.022Z,9.90
2018-05-16T01:18:16.509Z,8.90
2018-05-16T01:21:49.001Z,10.17
2018-05-16T01:25:21.532Z,9.60
2018-05-16T01:28:54.017Z,9.10
2018-05-16T01:32:26.504Z,10.23
2018-05-16T01:35:59.015Z,10.20
2018-05-16T01:39:31.500Z,10.10
2018-05-16T01:43:03.997Z,10.20
2018-05-16T01:46:36.492Z,11.40
2018-05-16T01:50:08.977Z,10.40
2018-05-16T01:53:41.459Z,10.10
2018-05-16T01:57:14.735Z,10.40
2018-05-16T02:00:47.220Z,9.10
2018-05-16T02:04:19.700Z,10.40
2018-05-16T02:07:52.192Z,11.23
2018-05-16T02:11:25.453Z,10.83
2018-05-16T02:14:57.944Z,11.37
2018-05-16T02:18:30.422Z,11.33
2018-05-16T02:22:02.912Z,10.63
2018-05-16T02:25:35.400Z,10.97
2018-05-16T02:29:07.884Z,11.97
2018-05-16T02:32:40.372Z,11.37
2018-05-16T02:36:12.869Z,12.33
2018-05-16T02:39:46.124Z,12.33
2018-05-16T02:43:18.600Z,11.60
2018-05-16T02:46:51.110Z,12.30
2018-05-16T02:50:23.599Z,11.90
2018-05-16T02:53:56.092Z,11.93
2018-05-16T02:57:28.592Z,11.23
2018-05-16T03:01:01.863Z,12.20
2018-05-16T03:04:34.351Z,11.97
2018-05-16T03:08:06.836Z,12.37
2018-05-16T03:11:39.324Z,13.50
2018-05-16T03:15:12.604Z,13.40
2018-05-16T03:18:45.093Z,13.00
2018-05-16T03:22:17.577Z,13.30
2018-05-16T03:25:50.075Z,12.73
2018-05-16T03:29:23.323Z,12.60
2018-05-16T03:32:55.818Z,12.30
2018-05-16T03:36:29.069Z,12.93
2018-05-16T03:40:02.328Z,12.47
2018-05-16T03:43:34.815Z,12.47
2018-05-16T03:47:07.326Z,13.80
2018-05-16T03:50:39.798Z,13.13
2018-05-16T03:54:12.282Z,13.50
2018-05-16T04:02:03.844Z,13.40
2018-05-16T04:05:37.097Z,13.43
2018-05-16T04:09:09.589Z,13.40
2018-05-16T04:12:42.066Z,13.13
2018-05-16T04:16:14.554Z,12.40
2018-05-16T04:19:47.050Z,11.60
2018-05-16T04:23:19.532Z,13.30
2018-05-16T04:26:52.010Z,13.30
2018-05-16T04:30:24.500Z,13.50
2018-05-16T04:33:56.987Z,14.60
2018-05-16T04:37:29.464Z,14.57
2018-05-16T04:41:01.952Z,15.23
2018-05-16T04:44:34.435Z,16.13
2018-05-16T04:48:06.924Z,14.00
2018-05-16T04:51:40.164Z,13.50
2018-05-16T04:55:12.645Z,12.97
2018-05-16T04:58:45.140Z,12.33
2018-05-16T05:02:17.628Z,12.13
2018-05-16T05:05:50.102Z,13.00
2018-05-16T05:09:22.593Z,12.57
2018-05-16T05:12:55.073Z,12.63
2018-05-16T05:16:27.550Z,12.40
2018-05-16T05:20:00.039Z,12.77
2018-05-16T05:23:32.529Z,12.57
2018-05-16T05:27:05.011Z,11.67
2018-05-16T05:30:37.527Z,12.70
2018-05-16T05:34:10.014Z,12.97
2018-05-16T05:37:43.267Z,12.10
2018-05-16T05:41:15.735Z,13.33
2018-05-16T05:44:48.229Z,12.10
2018-05-16T05:48:20.736Z,12.57
2018-05-16T05:51:53.226Z,13.60
2018-05-16T05:55:25.705Z,13.50
2018-05-16T05:58:58.188Z,13.47
2018-05-16T06:02:30.680Z,14.57
2018-05-16T06:06:03.160Z,13.87
2018-05-16T06:09:36.440Z,14.20
2018-05-16T06:13:08.919Z,12.80
2018-05-16T06:16:41.410Z,16.27
2018-05-16T06:20:13.889Z,13.23
2018-05-16T06:23:46.378Z,15.70
2018-05-16T06:27:18.953Z,15.63
2018-05-16T06:30:52.132Z,17.37
2018-05-16T06:34:24.609Z,17.07
2018-05-16T06:37:57.093Z,18.10
2018-05-16T06:41:29.580Z,17.23
2018-05-16T06:45:02.057Z,18.70
2018-05-16T06:48:35.323Z,17.90
2018-05-16T06:52:07.804Z,19.20
2018-05-16T06:55:40.300Z,18.10
2018-05-16T06:59:12.773Z,18.43
2018-05-16T07:02:45.266Z,17.90
2018-05-16T07:06:17.744Z,19.33
2018-05-16T07:09:50.215Z,22.90
2018-05-16T07:13:22.700Z,21.83
2018-05-16T07:16:55.203Z,21.77
2018-05-16T07:20:27.692Z,21.47
2018-05-16T07:24:00.169Z,22.90
2018-05-16T07:27:32.667Z,23.00
2018-05-16T07:31:05.170Z,21.00
2018-05-16T07:34:37.668Z,20.70
2018-05-16T07:38:10.925Z,22.90
2018-05-16T07:41:43.416Z,22.97
2018-05-16T07:45:16.673Z,21.77
2018-05-16T07:48:49.152Z,21.00
2018-05-16T07:52:21.637Z,21.70
2018-05-16T07:55:54.127Z,21.30
2018-05-16T07:59:26.617Z,18.87
2018-05-16T08:02:59.096Z,19.97
2018-05-16T08:06:31.587Z,20.27
2018-05-16T08:10:04.073Z,21.47
2018-05-16T08:13:36.565Z,21.67
2018-05-16T08:17:09.045Z,20.53
2018-05-16T08:20:41.528Z,20.63
2018-05-16T08:24:14.020Z,21.50
2018-05-16T08:27:46.489Z,20.93
2018-05-16T08:31:18.983Z,21.40
2018-05-16T08:34:51.470Z,17.57
2018-05-16T08:38:23.945Z,19.10
2018-05-16T08:41:56.437Z,20.53
2018-05-16T08:45:28.935Z,20.17
2018-05-16T08:49:01.416Z,20.40
2018-05-16T08:52:33.892Z,21.77
2018-05-16T08:56:06.388Z,21.07
2018-05-16T08:59:39.645Z,18.80
2018-05-16T09:03:12.121Z,21.00
2018-05-16T09:06:44.609Z,20.67
2018-05-16T09:10:17.103Z,19.10
2018-05-16T09:13:49.591Z,20.90
2018-05-16T09:17:22.140Z,19.33
2018-05-16T09:20:54.584Z,20.80
2018-05-16T09:24:27.846Z,20.77
2018-05-16T09:28:00.351Z,19.67
2018-05-16T09:31:32.822Z,20.63
2018-05-16T09:35:05.317Z,20.00
2018-05-16T09:38:38.576Z,19.97
2018-05-16T09:42:11.075Z,17.07
2018-05-16T09:45:43.674Z,16.80
2018-05-16T09:49:16.869Z,16.00
2018-05-16T09:52:49.364Z,16.27
2018-05-16T09:56:21.835Z,17.27
2018-05-16T09:59:54.322Z,15.80
2018-05-16T10:03:26.808Z,14.37
2018-05-16T10:06:59.287Z,14.43
2018-05-16T10:10:31.773Z,16.50
2018-05-16T10:14:04.256Z,15.97
2018-05-16T10:17:36.748Z,18.80
2018-05-16T10:21:10.004Z,19.30
2018-05-16T10:24:42.509Z,20.47
2018-05-16T10:28:15.004Z,20.63
2018-05-16T10:31:47.480Z,18.03
2018-05-16T10:35:19.973Z,18.60
2018-05-16T10:38:53.231Z,17.30
2018-05-16T10:42:26.059Z,19.30
2018-05-16T10:45:58.213Z,18.37
2018-05-16T10:49:30.701Z,18.20
2018-05-16T10:53:03.205Z,17.83
2018-05-16T10:56:36.465Z,20.47
2018-05-16T11:00:08.949Z,19.57
2018-05-16T11:03:41.437Z,20.53
2018-05-16T11:07:13.928Z,19.07
2018-05-16T11:10:46.405Z,19.23
2018-05-16T11:14:18.896Z,18.20
2018-05-16T11:17:51.389Z,19.03
2018-05-16T11:21:23.891Z,19.30
2018-05-16T11:24:57.134Z,19.40
2018-05-16T11:28:29.897Z,18.93
2018-05-16T11:32:02.392Z,16.73
2018-05-16T11:35:34.864Z,12.73
2018-05-16T11:39:07.357Z,17.83
2018-05-16T11:42:39.858Z,18.87
2018-05-16T11:46:12.341Z,19.47
2018-05-16T11:49:44.824Z,20.63
2018-05-16T11:53:17.311Z,20.70
2018-05-16T11:56:49.832Z,21.50
2018-05-16T12:00:23.074Z,20.10
2018-05-16T12:03:55.562Z,20.70
2018-05-16T12:07:28.056Z,23.63
2018-05-16T12:11:00.556Z,24.30
2018-05-16T12:14:33.122Z,24.17
2018-05-16T12:18:05.539Z,22.53
2018-05-16T12:21:38.904Z,21.87
2018-05-16T12:25:11.319Z,21.47
2018-05-16T12:28:44.557Z,21.53
2018-05-16T12:32:17.057Z,18.80
2018-05-16T12:35:49.549Z,17.07
2018-05-16T12:39:22.028Z,17.60
2018-05-16T12:43:06.369Z,19.10
2018-05-16T12:46:38.933Z,18.30
2018-05-16T12:50:11.362Z,18.60
2018-05-16T12:53:43.841Z,21.87
2018-05-16T12:57:16.338Z,23.97
2018-05-16T13:00:48.829Z,23.67
2018-05-16T13:04:22.065Z,24.23
2018-05-16T13:07:54.557Z,26.77
2018-05-16T13:11:27.048Z,24.80
2018-05-16T13:14:59.529Z,24.53
2018-05-16T13:18:32.009Z,27.57
2018-05-16T13:22:04.520Z,30.17
2018-05-16T13:25:37.008Z,23.33
2018-05-16T13:29:09.494Z,23.13
2018-05-16T13:32:41.968Z,22.60
2018-05-16T13:36:14.496Z,22.83
2018-05-16T13:39:46.977Z,20.90
2018-05-16T13:43:19.464Z,18.90
2018-05-16T13:46:52.136Z,18.60
2018-05-16T13:50:24.640Z,18.20
2018-05-16T13:53:57.131Z,17.87
2018-05-16T13:57:29.608Z,16.20
2018-05-16T14:01:02.100Z,15.80
2018-05-16T14:04:34.600Z,16.47
2018-05-16T14:08:07.092Z,14.30
2018-05-16T14:11:39.576Z,14.83
2018-05-16T14:15:12.099Z,15.10
2018-05-16T14:18:45.328Z,14.00
2018-05-16T14:22:17.810Z,14.70
2018-05-16T14:25:50.315Z,14.60
2018-05-16T14:29:22.821Z,14.90
2018-05-16T14:32:56.076Z,15.20
2018-05-16T14:36:28.562Z,14.33
2018-05-16T14:40:01.036Z,9.30
2018-05-16T14:43:33.512Z,0.23
2018-05-16T14:47:05.988Z,0.30
2018-05-16T14:50:38.470Z,0.30
2018-05-16T14:54:10.961Z,0.30
2018-05-16T14:57:43.447Z,0.20
2018-05-16T15:01:15.922Z,0.20
2018-05-16T15:04:48.420Z,0.20
2018-05-16T15:08:20.908Z,0.20
2018-05-16T15:11:53.384Z,0.40
2018-05-16T15:15:25.861Z,0.20
2018-05-16T15:18:58.340Z,0.40
2018-05-16T15:22:30.841Z,0.20
2018-05-16T15:26:03.317Z,0.80
2018-05-16T15:29:35.798Z,0.20
2018-05-16T15:33:08.321Z,0.50
2018-05-16T15:36:40.761Z,0.20
2018-05-16T15:40:13.246Z,0.20
2018-05-16T15:43:45.728Z,0.20
2018-05-16T15:47:18.213Z,0.20
2018-05-16T15:50:50.689Z,0.20
2018-05-16T15:54:23.184Z,0.20
2018-05-16T15:57:55.670Z,0.20
2018-05-16T16:01:28.144Z,0.20
2018-05-16T16:05:00.621Z,0.20
2018-05-16T16:08:33.115Z,0.20
2018-05-16T16:12:05.594Z,0.20
2018-05-16T16:15:38.060Z,0.20
2018-05-16T16:19:10.558Z,0.20
2018-05-16T16:22:43.041Z,0.20
2018-05-16T16:26:15.537Z,0.20
2018-05-16T16:29:48.017Z,0.20
2018-05-16T16:33:20.501Z,0.20
2018-05-16T16:36:52.986Z,0.20
2018-05-16T16:40:25.460Z,0.20
2018-05-16T16:43:57.947Z,0.30
2018-05-16T16:47:31.192Z,0.20
2018-05-16T16:51:03.677Z,0.20
2018-05-16T16:54:36.175Z,0.30
2018-05-16T16:58:08.636Z,0.30
2018-05-16T17:01:41.107Z,0.90
2018-05-16T17:05:13.574Z,0.20
2018-05-16T17:08:46.051Z,0.20
2018-05-16T17:12:18.535Z,0.30
2018-05-16T17:15:51.786Z,0.20
2018-05-16T17:19:24.272Z,0.20
2018-05-16T17:22:56.779Z,0.60
2018-05-16T17:26:29.256Z,0.30
2018-05-16T17:30:01.730Z,0.70
2018-05-16T17:33:34.205Z,0.57
2018-05-16T17:37:06.685Z,0.20
2018-05-16T17:40:39.173Z,0.20
2018-05-16T17:44:11.649Z,0.20
2018-05-16T17:47:44.128Z,0.20
2018-05-16T17:51:16.625Z,0.20
2018-05-16T17:54:49.109Z,2.30
2018-05-16T17:58:21.587Z,0.20
2018-05-16T18:01:54.059Z,0.20
2018-05-16T18:05:26.542Z,0.30
2018-05-16T18:08:59.015Z,0.57
2018-05-16T18:12:31.530Z,0.20
2018-05-16T18:16:16.505Z,0.20
2018-05-16T18:19:49.753Z,0.20
2018-05-16T18:23:22.235Z,0.30
2018-05-16T18:26:54.722Z,0.20
2018-05-16T18:30:27.207Z,0.20
2018-05-16T18:33:59.679Z,0.20
2018-05-16T18:37:32.180Z,0.73
2018-05-16T18:41:04.658Z,0.20
2018-05-16T18:44:37.137Z,0.20
2018-05-16T18:48:09.605Z,0.20
2018-05-16T18:51:42.098Z,0.20
2018-05-16T18:55:14.583Z,0.20
2018-05-16T18:58:47.060Z,0.30
2018-05-16T19:02:19.554Z,0.20
2018-05-16T19:05:52.030Z,0.20
2018-05-16T19:09:24.510Z,0.40
2018-05-16T19:12:56.986Z,0.20
2018-05-16T19:16:29.466Z,0.20
2018-05-16T19:20:01.956Z,0.20
2018-05-16T19:23:34.433Z,0.30
2018-05-16T19:27:07.003Z,0.20
2018-05-16T19:30:39.414Z,0.30
2018-05-16T19:34:11.896Z,0.20
2018-05-16T19:37:44.370Z,0.20
2018-05-16T19:41:16.848Z,0.20
2018-05-16T19:44:49.334Z,0.27
2018-05-16T19:48:21.817Z,0.20
2018-05-16T19:51:54.291Z,0.37
2018-05-16T19:55:26.768Z,0.20
2018-05-16T19:58:59.245Z,0.20
2018-05-16T20:02:31.720Z,0.20
2018-05-16T20:06:04.211Z,0.20
2018-05-16T20:09:36.685Z,0.30
2018-05-16T20:13:09.164Z,0.20
2018-05-16T20:16:41.627Z,0.20
2018-05-16T20:20:14.892Z,0.20
2018-05-16T20:23:47.451Z,0.40
2018-05-16T20:27:19.852Z,0.20
2018-05-16T20:30:52.333Z,0.30
2018-05-16T20:34:24.803Z,0.20
2018-05-16T20:37:57.285Z,0.20
2018-05-16T20:41:29.776Z,0.20
2018-05-16T20:45:02.270Z,0.30
2018-05-16T20:48:34.755Z,0.20
2018-05-16T20:52:07.232Z,0.20
2018-05-16T20:55:39.726Z,0.20
2018-05-16T20:59:12.968Z,0.20
2018-05-16T21:02:45.464Z,0.20
2018-05-16T21:06:17.957Z,0.30
2018-05-16T21:09:50.456Z,0.20
2018-05-16T21:13:22.949Z,0.20
2018-05-16T21:16:56.193Z,0.30
2018-05-16T21:20:28.656Z,0.20
2018-05-16T21:24:01.145Z,0.20
2018-05-16T21:27:34.522Z,0.20
2018-05-16T21:31:07.007Z,0.20
2018-05-16T21:34:39.565Z,0.20
2018-05-16T21:38:12.053Z,0.20
2018-05-16T21:41:44.533Z,0.40
2018-05-16T21:45:16.996Z,0.20
2018-05-16T21:48:49.483Z,0.20
2018-05-16T21:52:21.960Z,0.20
2018-05-16T21:55:54.428Z,0.20
2018-05-16T21:59:26.906Z,0.20
2018-05-16T22:02:59.380Z,0.20
2018-05-16T22:06:31.863Z,0.20
2018-05-16T22:10:04.337Z,0.20
2018-05-16T22:13:36.816Z,0.20
2018-05-16T22:17:09.294Z,0.33
2018-05-16T22:20:41.755Z,0.20
2018-05-16T22:24:15.004Z,0.20
2018-05-16T22:27:47.495Z,0.20
2018-05-16T22:31:25.556Z,1.33
2018-05-16T22:35:03.740Z,0.20
2018-05-16T22:38:41.824Z,0.20
2018-05-16T22:42:20.757Z,0.20
2018-05-16T22:45:54.050Z,0.20
2018-05-16T22:49:26.520Z,0.20
2018-05-16T22:52:58.996Z,0.20
2018-05-16T22:56:31.492Z,0.20
2018-05-16T23:00:03.982Z,0.20
2018-05-16T23:03:36.465Z,0.20
2018-05-16T23:07:08.942Z,0.20
2018-05-16T23:10:41.413Z,0.20
2018-05-16T23:14:13.902Z,0.20
2018-05-16T23:17:46.431Z,0.20
2018-05-16T23:21:18.873Z,0.23
2018-05-16T23:24:51.340Z,0.20
2018-05-16T23:28:23.812Z,0.20
2018-05-16T23:31:56.295Z,0.20
2018-05-16T23:35:28.774Z,0.20
2018-05-16T23:39:01.243Z,0.20
2018-05-16T23:42:34.488Z,0.20
2018-05-16T23:46:06.988Z,0.20
2018-05-16T23:49:39.452Z,0.20
2018-05-16T23:53:11.939Z,0.20
2018-05-16T23:56:44.417Z,0.20
